createdAt,value
2023-01-23T00:01:13.061Z,9.38
2023-01-23T00:03:42.119Z,10.80
2023-01-23T00:06:13.837Z,7.57
2023-01-23T00:08:43.206Z,10.85
2023-01-23T00:11:13.340Z,7.03
2023-01-23T00:13:41.201Z,9.13
2023-01-23T00:16:11.200Z,10.73
2023-01-23T00:18:39.202Z,11.20
2023-01-23T00:21:10.042Z,8.07
2023-01-23T00:23:38.568Z,9.00
2023-01-23T00:26:07.087Z,10.85
2023-01-23T00:28:35.893Z,10.60
2023-01-23T00:31:05.408Z,8.07
2023-01-23T00:33:33.569Z,10.63
2023-01-23T00:36:01.476Z,9.20
2023-01-23T00:38:30.482Z,8.73
2023-01-23T00:40:58.238Z,10.13
2023-01-23T00:43:27.020Z,10.65
2023-01-23T00:45:54.821Z,9.43
2023-01-23T00:48:22.521Z,9.90
2023-01-23T00:50:50.344Z,9.02
2023-01-23T00:53:18.197Z,8.82
2023-01-23T00:55:48.474Z,10.15
2023-01-23T00:58:16.197Z,9.13
2023-01-23T01:00:43.879Z,8.35
2023-01-23T01:03:11.674Z,8.23
2023-01-23T01:05:39.717Z,7.05
2023-01-23T01:08:07.596Z,7.30
2023-01-23T01:10:35.856Z,7.78
2023-01-23T01:13:04.869Z,9.05
2023-01-23T01:15:32.735Z,6.80
2023-01-23T01:18:00.714Z,7.90
2023-01-23T01:20:29.677Z,8.57
2023-01-23T01:23:00.416Z,6.00
2023-01-23T01:25:28.347Z,7.18
2023-01-23T01:27:57.225Z,7.38
2023-01-23T01:30:26.997Z,6.72
2023-01-23T01:32:55.789Z,12.43
2023-01-23T01:35:25.166Z,6.60
2023-01-23T01:37:52.917Z,8.73
2023-01-23T01:40:24.859Z,7.78
2023-01-23T01:42:57.059Z,8.45
2023-01-23T01:45:54.569Z,8.65
2023-01-23T01:48:31.264Z,9.48
2023-01-23T01:50:59.643Z,10.63
2023-01-23T01:53:29.867Z,12.00
2023-01-23T01:55:58.632Z,10.63
2023-01-23T01:58:28.010Z,9.88
2023-01-23T02:00:56.953Z,9.93
2023-01-23T02:03:27.252Z,8.38
2023-01-23T02:05:54.940Z,11.93
2023-01-23T02:08:27.414Z,8.13
2023-01-23T02:10:55.433Z,11.18
2023-01-23T02:13:30.202Z,9.95
2023-01-23T02:16:01.253Z,10.38
2023-01-23T02:18:33.312Z,9.73
2023-01-23T02:21:04.996Z,9.75
2023-01-23T02:23:46.135Z,8.15
2023-01-23T02:26:25.840Z,9.32
2023-01-23T02:28:55.281Z,6.90
2023-01-23T02:31:27.785Z,8.75
2023-01-23T02:33:57.604Z,9.93
2023-01-23T02:36:27.946Z,11.30
2023-01-23T02:39:03.375Z,8.07
2023-01-23T02:41:34.436Z,7.97
2023-01-23T02:44:05.739Z,8.82
2023-01-23T02:46:34.773Z,8.95
2023-01-23T02:49:02.701Z,8.07
2023-01-23T02:51:31.208Z,8.77
2023-01-23T02:53:59.223Z,8.82
2023-01-23T02:56:27.111Z,5.53
2023-01-23T02:59:10.155Z,5.43
2023-01-23T03:01:37.911Z,8.40
2023-01-23T03:04:06.322Z,9.90
2023-01-23T03:06:37.523Z,5.72
2023-01-23T03:09:08.866Z,11.20
2023-01-23T03:11:38.059Z,8.63
2023-01-23T03:14:10.888Z,7.57
2023-01-23T03:16:38.821Z,9.27
2023-01-23T03:19:09.174Z,8.02
2023-01-23T03:21:40.237Z,7.32
2023-01-23T03:24:10.495Z,7.00
2023-01-23T03:26:41.904Z,8.52
2023-01-23T03:29:29.999Z,6.25
2023-01-23T03:31:57.824Z,7.95
2023-01-23T03:34:26.827Z,7.10
2023-01-23T03:36:54.906Z,7.10
2023-01-23T03:39:39.871Z,9.90
2023-01-23T03:42:08.029Z,8.15
2023-01-23T03:44:37.259Z,7.68
2023-01-23T03:47:05.445Z,8.95
2023-01-23T03:49:33.274Z,11.25
2023-01-23T03:52:01.209Z,11.50
2023-01-23T03:54:30.497Z,11.18
2023-01-23T03:56:58.263Z,6.97
2023-01-23T03:59:50.452Z,7.93
2023-01-23T04:02:20.888Z,7.82
2023-01-23T04:04:48.672Z,13.20
2023-01-23T04:07:16.413Z,9.00
2023-01-23T04:09:45.524Z,7.78
2023-01-23T04:12:13.251Z,8.35
2023-01-23T04:14:45.002Z,11.05
2023-01-23T04:17:16.205Z,10.18
2023-01-23T04:19:44.125Z,12.20
2023-01-23T04:22:11.836Z,12.20
2023-01-23T04:24:45.453Z,16.23
2023-01-23T04:27:13.216Z,9.07
2023-01-23T04:29:41.874Z,12.95
2023-01-23T04:32:10.576Z,12.15
2023-01-23T04:34:46.120Z,10.38
2023-01-23T04:37:16.513Z,14.82
2023-01-23T04:39:44.697Z,10.75
2023-01-23T04:42:12.522Z,11.23
2023-01-23T04:45:00.128Z,14.65
2023-01-23T04:47:47.866Z,11.40
2023-01-23T04:50:18.904Z,12.30
2023-01-23T04:52:48.855Z,14.90
2023-01-23T04:55:17.073Z,15.43
2023-01-23T04:57:45.107Z,13.15
2023-01-23T05:00:21.726Z,12.52
2023-01-23T05:02:53.520Z,14.05
2023-01-23T05:05:22.715Z,14.65
2023-01-23T05:07:53.278Z,16.55
2023-01-23T05:10:21.823Z,12.10
2023-01-23T05:12:50.750Z,15.05
2023-01-23T05:15:20.524Z,14.45
2023-01-23T05:17:48.857Z,11.52
2023-01-23T05:20:17.420Z,14.57
2023-01-23T05:22:52.964Z,13.98
2023-01-23T05:25:26.696Z,9.10
2023-01-23T05:27:56.764Z,11.68
2023-01-23T05:30:25.481Z,9.55
2023-01-23T05:33:01.548Z,10.40
2023-01-23T05:35:29.384Z,15.00
2023-01-23T05:37:58.475Z,15.82
2023-01-23T05:40:26.991Z,17.08
2023-01-23T05:43:15.714Z,14.82
2023-01-23T05:46:04.093Z,16.90
2023-01-23T05:48:48.997Z,13.05
2023-01-23T05:51:17.392Z,14.18
2023-01-23T05:53:46.874Z,19.23
2023-01-23T05:56:15.229Z,15.07
2023-01-23T05:59:03.730Z,15.40
2023-01-23T06:01:40.752Z,15.02
2023-01-23T06:04:28.420Z,16.48
2023-01-23T06:07:14.953Z,11.38
2023-01-23T06:09:44.772Z,16.48
2023-01-23T06:12:12.613Z,17.42
2023-01-23T06:14:40.524Z,13.10
2023-01-23T06:17:10.644Z,14.75
2023-01-23T06:19:38.338Z,13.10
2023-01-23T06:22:06.206Z,14.25
2023-01-23T06:24:47.279Z,15.20
2023-01-23T06:27:15.103Z,16.45
2023-01-23T06:29:45.436Z,14.15
2023-01-23T06:32:13.325Z,16.90
2023-01-23T06:34:41.281Z,15.75
2023-01-23T06:37:09.223Z,14.70
2023-01-23T06:39:37.095Z,17.70
2023-01-23T06:42:12.995Z,13.40
2023-01-23T06:44:46.112Z,18.15
2023-01-23T06:47:16.141Z,22.10
2023-01-23T06:49:46.101Z,15.85
2023-01-23T06:52:13.839Z,14.38
2023-01-23T06:54:43.259Z,13.35
2023-01-23T06:57:12.960Z,16.20
2023-01-23T06:59:41.145Z,17.00
2023-01-23T07:02:12.103Z,16.80
2023-01-23T07:04:45.940Z,18.88
2023-01-23T07:07:13.855Z,13.73
2023-01-23T07:09:42.489Z,17.30
2023-01-23T07:12:17.379Z,19.25
2023-01-23T07:14:46.212Z,13.32
2023-01-23T07:17:18.230Z,15.70
2023-01-23T07:19:45.984Z,15.63
2023-01-23T07:22:19.937Z,12.30
2023-01-23T07:24:48.666Z,16.25
2023-01-23T07:27:17.779Z,15.77
2023-01-23T07:29:45.599Z,13.80
2023-01-23T07:32:13.339Z,14.80
2023-01-23T07:34:41.176Z,12.65
2023-01-23T07:37:09.132Z,14.57
2023-01-23T07:39:36.812Z,14.88
2023-01-23T07:42:04.705Z,10.15
2023-01-23T07:44:33.792Z,14.57
2023-01-23T07:47:01.512Z,18.23
2023-01-23T07:49:29.247Z,14.77
2023-01-23T07:51:56.948Z,12.70
2023-01-23T07:54:24.673Z,14.88
2023-01-23T07:56:52.463Z,14.25
2023-01-23T07:59:20.467Z,14.15
2023-01-23T08:01:51.207Z,13.32
2023-01-23T08:04:19.894Z,17.55
2023-01-23T08:06:47.548Z,15.48
2023-01-23T08:09:17.726Z,18.17
2023-01-23T08:11:45.454Z,15.57
2023-01-23T08:14:13.208Z,16.45
2023-01-23T08:16:42.158Z,14.88
2023-01-23T08:19:12.185Z,19.63
2023-01-23T08:21:39.860Z,16.02
2023-01-23T08:24:08.135Z,17.08
2023-01-23T08:26:35.887Z,24.25
2023-01-23T08:29:03.685Z,18.80
2023-01-23T08:31:31.626Z,17.15
2023-01-23T08:33:59.401Z,18.80
2023-01-23T08:36:31.224Z,16.38
2023-01-23T08:38:58.878Z,17.17
2023-01-23T08:41:29.137Z,19.52
2023-01-23T08:43:58.211Z,15.25
2023-01-23T08:46:29.029Z,18.70
2023-01-23T08:48:58.457Z,18.67
2023-01-23T08:51:27.396Z,19.52
2023-01-23T08:53:56.535Z,14.52
2023-01-23T08:56:27.282Z,18.27
2023-01-23T08:58:55.247Z,14.63
2023-01-23T09:01:24.955Z,16.13
2023-01-23T09:03:53.377Z,14.25
2023-01-23T09:06:22.809Z,18.33
2023-01-23T09:08:50.667Z,15.88
2023-01-23T09:11:22.841Z,21.80
2023-01-23T09:13:53.996Z,16.45
2023-01-23T09:16:22.451Z,18.55
2023-01-23T09:18:50.219Z,16.13
2023-01-23T09:21:18.898Z,13.10
2023-01-23T09:23:46.859Z,19.55
2023-01-23T09:26:17.596Z,18.42
2023-01-23T09:28:48.041Z,17.40
2023-01-23T09:31:15.950Z,17.05
2023-01-23T09:33:43.786Z,20.95
2023-01-23T09:36:12.208Z,18.92
2023-01-23T09:38:40.691Z,13.23
2023-01-23T09:41:11.691Z,16.25
2023-01-23T09:43:48.463Z,11.90
2023-01-23T09:46:22.591Z,16.08
2023-01-23T09:48:58.359Z,17.13
2023-01-23T09:51:29.938Z,13.35
2023-01-23T09:54:03.079Z,18.98
2023-01-23T09:56:34.452Z,21.67
2023-01-23T09:59:11.816Z,15.15
2023-01-23T10:01:40.956Z,18.60
2023-01-23T10:04:12.256Z,13.88
2023-01-23T10:07:12.378Z,16.17
2023-01-23T10:09:54.723Z,15.50
2023-01-23T10:12:33.272Z,12.57
2023-01-23T10:15:24.340Z,35.10
2023-01-23T10:18:03.996Z,14.80
2023-01-23T10:20:47.844Z,16.40
2023-01-23T10:23:30.524Z,16.80
2023-01-23T10:26:00.499Z,17.73
2023-01-23T10:28:38.080Z,13.10
2023-01-23T10:31:12.958Z,15.10
2023-01-23T10:33:50.317Z,16.33
2023-01-23T10:36:26.244Z,14.52
2023-01-23T10:39:01.408Z,14.40
2023-01-23T10:41:29.290Z,17.55
2023-01-23T10:43:57.885Z,15.93
2023-01-23T10:46:31.801Z,13.52
2023-01-23T10:49:02.459Z,12.80
2023-01-23T10:51:33.634Z,15.18
2023-01-23T10:54:06.183Z,13.50
2023-01-23T10:56:36.643Z,13.90
2023-01-23T10:59:06.778Z,13.75
2023-01-23T11:01:38.759Z,15.00
2023-01-23T11:04:20.154Z,12.02
2023-01-23T11:07:10.255Z,16.52
2023-01-23T11:09:48.442Z,14.80
2023-01-23T11:12:20.264Z,13.73
2023-01-23T11:14:48.583Z,16.73
2023-01-23T11:17:20.833Z,16.17
2023-01-23T11:19:53.492Z,16.08
2023-01-23T11:22:28.950Z,15.88
2023-01-23T11:24:57.045Z,14.25
2023-01-23T11:27:28.082Z,17.27
2023-01-23T11:30:14.203Z,16.25
2023-01-23T11:32:48.927Z,21.98
2023-01-23T11:35:22.675Z,20.27
2023-01-23T11:37:51.400Z,22.63
2023-01-23T11:40:20.887Z,18.10
2023-01-23T11:42:49.142Z,20.75
2023-01-23T11:45:31.136Z,18.20
2023-01-23T11:48:12.819Z,21.80
2023-01-23T11:50:55.437Z,19.80
2023-01-23T11:53:41.922Z,24.33
2023-01-23T11:56:24.187Z,19.52
2023-01-23T11:59:08.933Z,18.63
2023-01-23T12:01:58.443Z,16.38
2023-01-23T12:04:45.246Z,21.52
2023-01-23T12:07:20.804Z,16.50
2023-01-23T12:09:59.706Z,15.98
2023-01-23T12:12:44.740Z,19.20
2023-01-23T12:15:22.935Z,18.25
2023-01-23T12:18:05.792Z,14.75
2023-01-23T12:20:42.443Z,12.68
2023-01-23T12:23:25.828Z,19.15
2023-01-23T12:26:04.115Z,14.05
2023-01-23T12:28:49.741Z,16.55
2023-01-23T12:31:31.097Z,16.60
2023-01-23T12:34:11.246Z,17.23
2023-01-23T12:37:08.700Z,15.45
2023-01-23T12:39:56.524Z,19.88
2023-01-23T12:42:30.783Z,15.57
2023-01-23T12:45:02.541Z,14.95
2023-01-23T12:47:40.118Z,15.88
2023-01-23T12:50:18.618Z,15.85
2023-01-23T12:52:52.087Z,18.92
2023-01-23T12:55:26.711Z,15.82
2023-01-23T12:58:00.121Z,15.10
2023-01-23T13:00:48.952Z,19.10
2023-01-23T13:03:37.400Z,15.95
2023-01-23T13:06:27.745Z,15.60
2023-01-23T13:09:16.599Z,16.08
2023-01-23T13:11:57.109Z,20.27
2023-01-23T13:15:06.942Z,18.20
2023-01-23T13:17:38.071Z,16.75
2023-01-23T13:20:37.244Z,19.98
2023-01-23T13:23:21.106Z,20.05
2023-01-23T13:25:49.588Z,15.60
2023-01-23T13:28:44.676Z,20.13
2023-01-23T13:31:29.634Z,21.33
2023-01-23T13:34:14.650Z,18.77
2023-01-23T13:36:45.096Z,14.05
2023-01-23T13:39:27.570Z,21.77
2023-01-23T13:42:25.058Z,14.25
2023-01-23T13:45:17.903Z,14.02
2023-01-23T14:22:36.597Z,19.55
2023-01-23T14:25:04.873Z,15.43
2023-01-23T14:27:52.633Z,15.90
2023-01-23T14:30:24.578Z,36.92
2023-01-23T14:32:52.445Z,13.75
2023-01-23T14:35:25.860Z,14.15
2023-01-23T14:37:58.550Z,16.45
2023-01-23T14:40:28.470Z,17.05
2023-01-23T14:43:01.045Z,16.55
2023-01-23T14:45:33.325Z,18.30
2023-01-23T14:48:06.445Z,18.95
2023-01-23T14:50:36.579Z,16.05
2023-01-23T14:53:06.473Z,17.77
2023-01-23T14:55:38.385Z,13.45
2023-01-23T14:58:07.367Z,16.08
2023-01-23T15:00:36.931Z,18.02
2023-01-23T15:03:06.886Z,18.88
2023-01-23T15:05:42.015Z,14.90
2023-01-23T15:08:21.898Z,18.30
2023-01-23T15:10:52.038Z,15.77
2023-01-23T15:13:24.924Z,18.55
2023-01-23T15:15:58.765Z,18.10
2023-01-23T15:18:29.657Z,15.50
2023-01-23T15:20:59.967Z,15.93
2023-01-23T15:23:31.910Z,15.85
2023-01-23T15:26:30.728Z,15.77
2023-01-23T15:29:01.231Z,15.48
2023-01-23T15:31:32.287Z,17.45
2023-01-23T15:34:21.226Z,16.45
2023-01-23T15:36:54.140Z,20.17
2023-01-23T15:39:25.728Z,17.23
2023-01-23T15:41:56.151Z,15.63
2023-01-23T15:44:29.026Z,17.42
2023-01-23T15:47:00.864Z,14.38
2023-01-23T15:49:28.740Z,16.67
2023-01-23T15:51:58.984Z,16.25
2023-01-23T15:54:32.258Z,17.67
2023-01-23T15:57:08.830Z,17.48
2023-01-23T15:59:37.832Z,19.85
2023-01-23T16:02:06.403Z,16.88
2023-01-23T16:04:36.046Z,14.75
2023-01-23T16:07:09.509Z,21.08
2023-01-23T16:09:39.171Z,15.55
2023-01-23T16:12:07.170Z,15.48
2023-01-23T16:14:35.169Z,14.05
2023-01-23T16:17:15.985Z,14.27
2023-01-23T16:19:44.458Z,16.23
2023-01-23T16:22:18.669Z,10.30
2023-01-23T16:24:46.656Z,16.20
2023-01-23T16:27:18.720Z,12.10
2023-01-23T16:29:49.257Z,15.75
2023-01-23T16:32:19.781Z,13.52
2023-01-23T16:34:47.540Z,14.32
2023-01-23T16:37:19.078Z,14.93
2023-01-23T16:39:48.323Z,14.35
2023-01-23T16:42:19.417Z,12.52
2023-01-23T16:44:47.199Z,12.13
2023-01-23T16:47:15.013Z,11.02
2023-01-23T16:49:51.959Z,10.93
2023-01-23T16:52:25.866Z,12.10
2023-01-23T16:55:12.772Z,10.70
2023-01-23T16:57:40.613Z,10.43
2023-01-23T17:00:10.542Z,13.27
2023-01-23T17:02:38.260Z,12.52
2023-01-23T17:05:07.154Z,10.75
2023-01-23T17:07:36.199Z,12.20
2023-01-23T17:10:03.962Z,14.38
2023-01-23T17:12:35.704Z,12.25
2023-01-23T17:15:04.496Z,13.65
2023-01-23T17:17:35.198Z,14.93
2023-01-23T17:20:05.305Z,15.98
2023-01-23T17:22:39.077Z,11.50
2023-01-23T17:25:13.355Z,14.65
2023-01-23T17:27:45.475Z,14.80
2023-01-23T17:30:16.058Z,19.92
2023-01-23T17:32:44.558Z,12.90
2023-01-23T17:35:20.861Z,13.70
2023-01-23T17:37:50.727Z,14.25
2023-01-23T17:40:19.202Z,15.63
2023-01-23T17:42:46.910Z,14.50
2023-01-23T17:45:15.421Z,12.88
2023-01-23T17:47:44.893Z,14.00
2023-01-23T17:50:18.847Z,12.77
2023-01-23T17:52:46.969Z,14.05
2023-01-23T17:55:17.723Z,14.07
2023-01-23T17:57:45.656Z,13.68
2023-01-23T18:00:15.715Z,13.02
2023-01-23T18:02:46.981Z,12.02
2023-01-23T18:05:15.927Z,10.75
2023-01-23T18:07:53.257Z,13.32
2023-01-23T18:10:28.399Z,15.25
2023-01-23T18:13:08.372Z,13.27
2023-01-23T18:15:44.249Z,14.57
2023-01-23T18:18:21.923Z,16.73
2023-01-23T18:20:54.436Z,13.98
2023-01-23T18:23:23.779Z,18.95
2023-01-23T18:26:02.876Z,12.98
2023-01-23T18:28:35.399Z,14.60
2023-01-23T18:31:11.265Z,18.45
2023-01-23T18:33:52.809Z,14.55
2023-01-23T18:36:31.537Z,13.85
2023-01-23T18:39:16.225Z,12.43
2023-01-23T18:41:58.942Z,12.70
2023-01-23T18:44:29.235Z,16.17
2023-01-23T18:46:57.539Z,11.65
2023-01-23T18:49:32.723Z,15.02
2023-01-23T18:52:08.704Z,12.63
2023-01-23T18:54:42.740Z,11.63
2023-01-23T18:57:23.936Z,13.70
2023-01-23T19:00:00.062Z,10.55
2023-01-23T19:02:35.783Z,14.18
2023-01-23T19:05:23.923Z,18.88
2023-01-23T19:07:52.374Z,14.50
2023-01-23T19:10:22.104Z,11.98
2023-01-23T19:13:02.875Z,16.00
2023-01-23T19:15:33.916Z,18.75
2023-01-23T19:18:10.370Z,16.27
2023-01-23T19:20:45.797Z,12.63
2023-01-23T19:23:26.881Z,19.15
2023-01-23T19:25:54.961Z,13.57
2023-01-23T19:28:24.448Z,15.43
2023-01-23T19:30:54.993Z,11.65
2023-01-23T19:33:23.283Z,13.00
2023-01-23T19:35:54.812Z,12.23
2023-01-23T19:38:23.650Z,14.27
2023-01-23T19:40:51.593Z,10.80
2023-01-23T19:43:20.657Z,13.48
2023-01-23T19:45:49.939Z,11.32
2023-01-23T19:48:17.919Z,13.35
2023-01-23T19:50:45.755Z,11.23
2023-01-23T19:53:14.684Z,13.05
2023-01-23T19:55:42.759Z,15.65
2023-01-23T19:58:10.538Z,12.32
2023-01-23T20:00:38.281Z,10.20
2023-01-23T20:03:07.417Z,9.43
2023-01-23T20:05:35.147Z,15.43
2023-01-23T20:08:02.976Z,29.15
2023-01-23T20:10:31.167Z,14.75
2023-01-23T20:12:58.906Z,11.98
2023-01-23T20:15:27.480Z,9.93
2023-01-23T20:17:55.213Z,14.57
2023-01-23T20:20:24.669Z,14.75
2023-01-23T20:22:52.649Z,12.98
2023-01-23T20:25:21.186Z,13.70
2023-01-23T20:27:49.434Z,11.93
2023-01-23T20:30:21.955Z,13.95
2023-01-23T20:32:49.865Z,10.52
2023-01-23T20:35:17.799Z,14.15
2023-01-23T20:37:46.977Z,13.00
2023-01-23T20:40:21.271Z,10.68
2023-01-23T20:42:51.521Z,9.90
2023-01-23T20:45:19.594Z,11.48
2023-01-23T20:47:49.668Z,11.35
2023-01-23T20:50:17.807Z,12.90
2023-01-23T20:53:00.773Z,12.18
2023-01-23T20:55:28.480Z,15.27
2023-01-23T20:58:10.167Z,13.05
2023-01-23T21:00:37.860Z,12.38
2023-01-23T21:03:05.757Z,12.98
2023-01-23T21:05:33.496Z,12.10
2023-01-23T21:08:02.680Z,13.68
2023-01-23T21:10:30.438Z,10.80
2023-01-23T21:12:58.122Z,9.88
2023-01-23T21:15:26.010Z,14.20
2023-01-23T21:17:53.722Z,11.10
2023-01-23T21:20:21.582Z,13.77
2023-01-23T21:22:49.245Z,12.55
2023-01-23T21:25:18.437Z,11.55
2023-01-23T21:27:46.133Z,14.73
2023-01-23T21:30:14.271Z,13.07
2023-01-23T21:32:42.002Z,12.35
2023-01-23T21:35:10.464Z,16.02
2023-01-23T21:37:38.162Z,13.23
2023-01-23T21:40:08.152Z,12.45
2023-01-23T21:42:37.173Z,15.32
2023-01-23T21:45:05.225Z,14.50
2023-01-23T21:47:35.373Z,11.13
2023-01-23T21:50:03.100Z,14.43
2023-01-23T21:52:31.777Z,12.48
2023-01-23T21:54:59.461Z,11.55
2023-01-23T21:57:27.199Z,14.25
2023-01-23T22:00:11.864Z,15.93
2023-01-23T22:02:43.968Z,16.30
2023-01-23T22:05:11.780Z,16.50
2023-01-23T22:07:39.524Z,14.93
2023-01-23T22:10:08.328Z,17.50
2023-01-23T22:12:36.019Z,15.90
2023-01-23T22:15:05.448Z,17.75
2023-01-23T22:17:33.522Z,14.20
2023-01-23T22:20:01.375Z,16.13
2023-01-23T22:22:29.072Z,15.18
2023-01-23T22:24:56.744Z,17.75
2023-01-23T22:27:24.589Z,11.15
2023-01-23T22:29:52.288Z,17.83
2023-01-23T22:32:21.458Z,15.85
2023-01-23T22:34:49.367Z,18.02
2023-01-23T22:37:17.139Z,15.13
2023-01-23T22:39:44.883Z,15.65
2023-01-23T22:42:12.560Z,17.83
2023-01-23T22:44:40.363Z,21.80
2023-01-23T22:47:08.705Z,16.55
2023-01-23T22:49:37.966Z,18.30
2023-01-23T22:52:07.913Z,23.05
2023-01-23T22:54:36.292Z,14.35
2023-01-23T22:57:04.083Z,18.27
2023-01-23T22:59:31.782Z,17.95
2023-01-23T23:01:59.500Z,17.27
2023-01-23T23:04:27.207Z,21.48
2023-01-23T23:06:56.218Z,20.33
2023-01-23T23:09:23.864Z,17.48
2023-01-23T23:11:52.615Z,20.95
2023-01-23T23:14:20.388Z,19.35
2023-01-23T23:16:48.110Z,19.25
2023-01-23T23:19:15.907Z,18.90
2023-01-23T23:21:43.609Z,16.00
2023-01-23T23:24:14.337Z,18.63
2023-01-23T23:26:44.930Z,16.88
2023-01-23T23:29:14.280Z,17.05
2023-01-23T23:31:42.137Z,20.50
2023-01-23T23:34:09.956Z,23.05
2023-01-23T23:36:37.660Z,17.90
2023-01-23T23:39:05.454Z,21.02
2023-01-23T23:41:34.434Z,16.30
2023-01-23T23:44:02.201Z,16.25
2023-01-23T23:46:30.233Z,18.70
2023-01-23T23:48:58.038Z,20.33
2023-01-23T23:51:27.707Z,20.17
2023-01-23T23:53:55.576Z,19.98
2023-01-23T23:56:26.182Z,20.70
2023-01-23T23:58:55.777Z,18.23
